sensor_id;sensor_type;location;lat;lon;timestamp;P1;durP1;ratioP1;P2;durP2;ratioP2
40204;SDS011;26963;42.666;23.366;2023-02-03T00:01:48;5.32;;;2.63;;
40204;SDS011;26963;42.666;23.366;2023-02-03T00:04:14;4.82;;;2.83;;
40204;SDS011;26963;42.666;23.366;2023-02-03T00:06:40;5.03;;;2.88;;
40204;SDS011;26963;42.666;23.366;2023-02-03T00:09:06;5.38;;;3.30;;
40204;SDS011;26963;42.666;23.366;2023-02-03T00:11:32;6.32;;;2.97;;
40204;SDS011;26963;42.666;23.366;2023-02-03T00:13:57;4.13;;;2.78;;
40204;SDS011;26963;42.666;23.366;2023-02-03T00:16:23;4.47;;;2.80;;
40204;SDS011;26963;42.666;23.366;2023-02-03T00:18:48;4.95;;;3.05;;
40204;SDS011;26963;42.666;23.366;2023-02-03T00:21:14;5.03;;;3.10;;
40204;SDS011;26963;42.666;23.366;2023-02-03T00:23:40;6.03;;;3.60;;
40204;SDS011;26963;42.666;23.366;2023-02-03T00:26:10;6.68;;;3.38;;
40204;SDS011;26963;42.666;23.366;2023-02-03T00:28:37;4.75;;;3.22;;
40204;SDS011;26963;42.666;23.366;2023-02-03T00:31:03;5.97;;;3.60;;
40204;SDS011;26963;42.666;23.366;2023-02-03T00:33:29;5.47;;;3.20;;
40204;SDS011;26963;42.666;23.366;2023-02-03T00:35:54;6.88;;;3.40;;
40204;SDS011;26963;42.666;23.366;2023-02-03T00:38:20;4.63;;;2.95;;
40204;SDS011;26963;42.666;23.366;2023-02-03T00:40:52;5.47;;;3.60;;
40204;SDS011;26963;42.666;23.366;2023-02-03T00:43:20;6.38;;;3.40;;
40204;SDS011;26963;42.666;23.366;2023-02-03T00:45:46;5.32;;;3.40;;
40204;SDS011;26963;42.666;23.366;2023-02-03T00:48:12;5.50;;;3.67;;
40204;SDS011;26963;42.666;23.366;2023-02-03T00:50:38;4.75;;;3.20;;
40204;SDS011;26963;42.666;23.366;2023-02-03T00:53:04;6.65;;;3.47;;
40204;SDS011;26963;42.666;23.366;2023-02-03T00:55:30;5.53;;;3.53;;
40204;SDS011;26963;42.666;23.366;2023-02-03T00:57:56;5.63;;;3.47;;
40204;SDS011;26963;42.666;23.366;2023-02-03T01:00:21;5.35;;;3.55;;
40204;SDS011;26963;42.666;23.366;2023-02-03T01:02:47;5.30;;;3.38;;
40204;SDS011;26963;42.666;23.366;2023-02-03T01:05:12;5.85;;;3.97;;
40204;SDS011;26963;42.666;23.366;2023-02-03T01:07:38;5.18;;;3.50;;
40204;SDS011;26963;42.666;23.366;2023-02-03T01:10:03;5.40;;;3.60;;
40204;SDS011;26963;42.666;23.366;2023-02-03T01:12:30;5.90;;;3.55;;
40204;SDS011;26963;42.666;23.366;2023-02-03T01:14:56;5.45;;;3.63;;
40204;SDS011;26963;42.666;23.366;2023-02-03T01:17:22;5.88;;;3.40;;
40204;SDS011;26963;42.666;23.366;2023-02-03T01:19:49;5.07;;;3.38;;
40204;SDS011;26963;42.666;23.366;2023-02-03T01:22:15;4.78;;;3.25;;
40204;SDS011;26963;42.666;23.366;2023-02-03T01:24:40;5.63;;;3.33;;
40204;SDS011;26963;42.666;23.366;2023-02-03T01:27:06;6.03;;;3.30;;
40204;SDS011;26963;42.666;23.366;2023-02-03T01:29:31;5.35;;;3.20;;
40204;SDS011;26963;42.666;23.366;2023-02-03T01:31:57;4.63;;;2.70;;
40204;SDS011;26963;42.666;23.366;2023-02-03T01:34:25;7.13;;;3.00;;
40204;SDS011;26963;42.666;23.366;2023-02-03T01:36:50;3.83;;;2.33;;
40204;SDS011;26963;42.666;23.366;2023-02-03T01:39:16;4.28;;;2.42;;
40204;SDS011;26963;42.666;23.366;2023-02-03T01:41:42;4.05;;;2.42;;
40204;SDS011;26963;42.666;23.366;2023-02-03T01:47:15;3.90;;;2.20;;
40204;SDS011;26963;42.666;23.366;2023-02-03T01:49:48;3.75;;;1.95;;
40204;SDS011;26963;42.666;23.366;2023-02-03T01:52:20;3.83;;;2.10;;
40204;SDS011;26963;42.666;23.366;2023-02-03T01:54:47;3.90;;;2.08;;
40204;SDS011;26963;42.666;23.366;2023-02-03T01:57:18;2.80;;;1.85;;
40204;SDS011;26963;42.666;23.366;2023-02-03T01:59:48;4.47;;;2.20;;
40204;SDS011;26963;42.666;23.366;2023-02-03T02:02:18;3.03;;;1.98;;
40204;SDS011;26963;42.666;23.366;2023-02-03T02:05:04;3.00;;;1.85;;
40204;SDS011;26963;42.666;23.366;2023-02-03T02:07:38;3.60;;;2.35;;
40204;SDS011;26963;42.666;23.366;2023-02-03T02:10:06;4.47;;;2.92;;
40204;SDS011;26963;42.666;23.366;2023-02-03T02:12:31;4.78;;;2.60;;
40204;SDS011;26963;42.666;23.366;2023-02-03T02:14:57;5.10;;;3.65;;
40204;SDS011;26963;42.666;23.366;2023-02-03T02:20:37;4.22;;;2.50;;
40204;SDS011;26963;42.666;23.366;2023-02-03T02:28:40;5.10;;;2.50;;
40204;SDS011;26963;42.666;23.366;2023-02-03T02:34:31;4.32;;;2.65;;
40204;SDS011;26963;42.666;23.366;2023-02-03T02:37:12;5.00;;;2.83;;
40204;SDS011;26963;42.666;23.366;2023-02-03T02:39:43;3.30;;;2.40;;
40204;SDS011;26963;42.666;23.366;2023-02-03T02:44:58;3.83;;;2.42;;
40204;SDS011;26963;42.666;23.366;2023-02-03T02:47:39;4.10;;;2.30;;
40204;SDS011;26963;42.666;23.366;2023-02-03T02:50:09;3.88;;;2.15;;
40204;SDS011;26963;42.666;23.366;2023-02-03T02:52:41;3.92;;;2.50;;
40204;SDS011;26963;42.666;23.366;2023-02-03T02:55:13;4.30;;;2.67;;
40204;SDS011;26963;42.666;23.366;2023-02-03T02:57:41;2.95;;;2.17;;
40204;SDS011;26963;42.666;23.366;2023-02-03T03:00:08;4.25;;;2.10;;
40204;SDS011;26963;42.666;23.366;2023-02-03T03:02:36;3.25;;;1.77;;
40204;SDS011;26963;42.666;23.366;2023-02-03T03:05:02;3.92;;;2.22;;
40204;SDS011;26963;42.666;23.366;2023-02-03T03:07:30;2.58;;;1.80;;
40204;SDS011;26963;42.666;23.366;2023-02-03T03:10:06;3.20;;;2.05;;
40204;SDS011;26963;42.666;23.366;2023-02-03T03:12:36;3.15;;;2.30;;
40204;SDS011;26963;42.666;23.366;2023-02-03T03:15:19;4.68;;;2.60;;
40204;SDS011;26963;42.666;23.366;2023-02-03T03:18:03;3.10;;;2.20;;
40204;SDS011;26963;42.666;23.366;2023-02-03T03:20:30;2.15;;;1.92;;
40204;SDS011;26963;42.666;23.366;2023-02-03T03:23:04;3.08;;;1.80;;
40204;SDS011;26963;42.666;23.366;2023-02-03T03:25:37;4.75;;;2.30;;
40204;SDS011;26963;42.666;23.366;2023-02-03T03:28:08;3.35;;;2.33;;
40204;SDS011;26963;42.666;23.366;2023-02-03T03:30:39;3.55;;;2.17;;
40204;SDS011;26963;42.666;23.366;2023-02-03T03:33:05;4.18;;;2.03;;
40204;SDS011;26963;42.666;23.366;2023-02-03T03:35:41;4.15;;;2.35;;
40204;SDS011;26963;42.666;23.366;2023-02-03T03:38:29;2.80;;;2.10;;
40204;SDS011;26963;42.666;23.366;2023-02-03T03:41:02;3.25;;;2.08;;
40204;SDS011;26963;42.666;23.366;2023-02-03T03:43:33;2.72;;;1.85;;
40204;SDS011;26963;42.666;23.366;2023-02-03T03:46:10;2.60;;;1.92;;
40204;SDS011;26963;42.666;23.366;2023-02-03T03:51:24;2.15;;;1.83;;
40204;SDS011;26963;42.666;23.366;2023-02-03T03:54:06;2.70;;;1.80;;
40204;SDS011;26963;42.666;23.366;2023-02-03T03:56:36;3.17;;;2.10;;
40204;SDS011;26963;42.666;23.366;2023-02-03T03:59:06;3.38;;;1.88;;
40204;SDS011;26963;42.666;23.366;2023-02-03T04:01:35;2.70;;;1.77;;
40204;SDS011;26963;42.666;23.366;2023-02-03T04:04:04;2.95;;;2.25;;
40204;SDS011;26963;42.666;23.366;2023-02-03T04:06:32;3.78;;;1.85;;
40204;SDS011;26963;42.666;23.366;2023-02-03T04:08:57;2.58;;;2.00;;
40204;SDS011;26963;42.666;23.366;2023-02-03T04:11:23;2.85;;;1.90;;
40204;SDS011;26963;42.666;23.366;2023-02-03T04:14:07;2.55;;;1.70;;
40204;SDS011;26963;42.666;23.366;2023-02-03T04:16:32;3.90;;;2.17;;
40204;SDS011;26963;42.666;23.366;2023-02-03T04:18:58;3.05;;;1.90;;
40204;SDS011;26963;42.666;23.366;2023-02-03T04:21:24;5.00;;;2.22;;
40204;SDS011;26963;42.666;23.366;2023-02-03T04:23:49;3.90;;;2.25;;
40204;SDS011;26963;42.666;23.366;2023-02-03T04:26:16;5.05;;;2.22;;
40204;SDS011;26963;42.666;23.366;2023-02-03T04:28:42;3.63;;;2.00;;
40204;SDS011;26963;42.666;23.366;2023-02-03T04:31:08;3.00;;;2.00;;
40204;SDS011;26963;42.666;23.366;2023-02-03T04:33:33;4.45;;;2.30;;
40204;SDS011;26963;42.666;23.366;2023-02-03T04:35:59;3.05;;;2.08;;
40204;SDS011;26963;42.666;23.366;2023-02-03T04:38:24;2.85;;;2.00;;
40204;SDS011;26963;42.666;23.366;2023-02-03T04:40:50;4.63;;;2.00;;
40204;SDS011;26963;42.666;23.366;2023-02-03T04:43:15;3.97;;;2.22;;
40204;SDS011;26963;42.666;23.366;2023-02-03T04:45:41;3.40;;;2.17;;
40204;SDS011;26963;42.666;23.366;2023-02-03T04:48:06;3.67;;;2.25;;
40204;SDS011;26963;42.666;23.366;2023-02-03T04:50:32;4.10;;;2.42;;
40204;SDS011;26963;42.666;23.366;2023-02-03T04:52:58;5.55;;;2.30;;
40204;SDS011;26963;42.666;23.366;2023-02-03T04:55:25;3.72;;;2.38;;
40204;SDS011;26963;42.666;23.366;2023-02-03T04:57:57;2.90;;;2.20;;
40204;SDS011;26963;42.666;23.366;2023-02-03T05:00:23;3.55;;;2.25;;
40204;SDS011;26963;42.666;23.366;2023-02-03T05:02:49;4.05;;;2.42;;
40204;SDS011;26963;42.666;23.366;2023-02-03T05:05:15;3.13;;;2.17;;
40204;SDS011;26963;42.666;23.366;2023-02-03T05:07:41;3.08;;;2.25;;
40204;SDS011;26963;42.666;23.366;2023-02-03T05:10:06;3.47;;;2.33;;
40204;SDS011;26963;42.666;23.366;2023-02-03T05:12:33;3.40;;;2.40;;
40204;SDS011;26963;42.666;23.366;2023-02-03T05:14:58;3.60;;;2.30;;
40204;SDS011;26963;42.666;23.366;2023-02-03T05:17:24;4.88;;;2.53;;
40204;SDS011;26963;42.666;23.366;2023-02-03T05:19:50;5.43;;;2.38;;
40204;SDS011;26963;42.666;23.366;2023-02-03T05:22:15;3.75;;;2.35;;
40204;SDS011;26963;42.666;23.366;2023-02-03T05:24:41;3.75;;;2.10;;
40204;SDS011;26963;42.666;23.366;2023-02-03T05:27:06;4.18;;;2.55;;
40204;SDS011;26963;42.666;23.366;2023-02-03T05:29:32;4.50;;;2.65;;
40204;SDS011;26963;42.666;23.366;2023-02-03T05:31:57;4.45;;;2.58;;
40204;SDS011;26963;42.666;23.366;2023-02-03T05:34:23;4.32;;;3.00;;
40204;SDS011;26963;42.666;23.366;2023-02-03T05:36:48;4.57;;;2.70;;
40204;SDS011;26963;42.666;23.366;2023-02-03T05:39:14;4.22;;;2.80;;
40204;SDS011;26963;42.666;23.366;2023-02-03T05:41:40;9.45;;;3.22;;
40204;SDS011;26963;42.666;23.366;2023-02-03T05:44:21;6.63;;;2.97;;
40204;SDS011;26963;42.666;23.366;2023-02-03T05:46:48;4.88;;;2.60;;
40204;SDS011;26963;42.666;23.366;2023-02-03T05:49:16;3.53;;;2.67;;
40204;SDS011;26963;42.666;23.366;2023-02-03T05:51:42;4.90;;;2.83;;
40204;SDS011;26963;42.666;23.366;2023-02-03T05:54:07;4.60;;;2.88;;
40204;SDS011;26963;42.666;23.366;2023-02-03T05:56:36;5.95;;;2.88;;
40204;SDS011;26963;42.666;23.366;2023-02-03T05:59:02;5.55;;;3.00;;
40204;SDS011;26963;42.666;23.366;2023-02-03T06:01:29;4.68;;;2.70;;
40204;SDS011;26963;42.666;23.366;2023-02-03T06:03:55;5.50;;;3.20;;
40204;SDS011;26963;42.666;23.366;2023-02-03T06:06:20;4.20;;;2.75;;
40204;SDS011;26963;42.666;23.366;2023-02-03T06:08:46;6.00;;;3.38;;
40204;SDS011;26963;42.666;23.366;2023-02-03T06:11:11;7.78;;;4.05;;
40204;SDS011;26963;42.666;23.366;2023-02-03T06:13:37;6.47;;;3.35;;
40204;SDS011;26963;42.666;23.366;2023-02-03T06:16:03;6.47;;;3.00;;
40204;SDS011;26963;42.666;23.366;2023-02-03T06:18:29;5.22;;;3.42;;
40204;SDS011;26963;42.666;23.366;2023-02-03T06:20:55;7.05;;;3.60;;
40204;SDS011;26963;42.666;23.366;2023-02-03T06:23:21;6.03;;;3.47;;
40204;SDS011;26963;42.666;23.366;2023-02-03T06:25:47;7.05;;;3.55;;
40204;SDS011;26963;42.666;23.366;2023-02-03T06:28:13;5.75;;;4.47;;
40204;SDS011;26963;42.666;23.366;2023-02-03T06:30:39;11.60;;;5.88;;
40204;SDS011;26963;42.666;23.366;2023-02-03T06:33:07;8.05;;;4.28;;
40204;SDS011;26963;42.666;23.366;2023-02-03T06:35:32;6.82;;;3.60;;
40204;SDS011;26963;42.666;23.366;2023-02-03T06:37:58;4.85;;;3.30;;
40204;SDS011;26963;42.666;23.366;2023-02-03T06:40:24;6.80;;;3.42;;
40204;SDS011;26963;42.666;23.366;2023-02-03T06:42:49;5.38;;;3.22;;
40204;SDS011;26963;42.666;23.366;2023-02-03T06:45:15;6.93;;;3.55;;
40204;SDS011;26963;42.666;23.366;2023-02-03T06:47:42;5.43;;;3.17;;
40204;SDS011;26963;42.666;23.366;2023-02-03T06:50:09;4.45;;;2.45;;
40204;SDS011;26963;42.666;23.366;2023-02-03T06:52:37;6.05;;;3.13;;
40204;SDS011;26963;42.666;23.366;2023-02-03T06:55:03;4.55;;;2.63;;
40204;SDS011;26963;42.666;23.366;2023-02-03T06:57:29;4.38;;;2.25;;
40204;SDS011;26963;42.666;23.366;2023-02-03T06:59:55;4.15;;;2.42;;
40204;SDS011;26963;42.666;23.366;2023-02-03T07:02:21;6.25;;;2.38;;
40204;SDS011;26963;42.666;23.366;2023-02-03T07:04:46;5.70;;;3.53;;
40204;SDS011;26963;42.666;23.366;2023-02-03T07:07:12;5.72;;;3.05;;
40204;SDS011;26963;42.666;23.366;2023-02-03T07:09:41;4.95;;;2.67;;
40204;SDS011;26963;42.666;23.366;2023-02-03T07:12:07;4.78;;;2.70;;
40204;SDS011;26963;42.666;23.366;2023-02-03T07:14:33;4.10;;;2.30;;
40204;SDS011;26963;42.666;23.366;2023-02-03T07:17:00;4.82;;;1.90;;
40204;SDS011;26963;42.666;23.366;2023-02-03T07:19:27;3.97;;;2.50;;
40204;SDS011;26963;42.666;23.366;2023-02-03T07:21:53;4.05;;;2.60;;
40204;SDS011;26963;42.666;23.366;2023-02-03T07:24:19;3.72;;;2.30;;
40204;SDS011;26963;42.666;23.366;2023-02-03T07:26:44;5.13;;;2.75;;
40204;SDS011;26963;42.666;23.366;2023-02-03T07:29:10;3.35;;;2.05;;
40204;SDS011;26963;42.666;23.366;2023-02-03T07:31:35;5.55;;;2.78;;
40204;SDS011;26963;42.666;23.366;2023-02-03T07:34:02;7.03;;;2.88;;
40204;SDS011;26963;42.666;23.366;2023-02-03T07:36:28;5.85;;;3.25;;
40204;SDS011;26963;42.666;23.366;2023-02-03T07:38:54;7.18;;;3.60;;
40204;SDS011;26963;42.666;23.366;2023-02-03T07:41:19;4.28;;;2.88;;
40204;SDS011;26963;42.666;23.366;2023-02-03T07:43:45;5.70;;;3.47;;
40204;SDS011;26963;42.666;23.366;2023-02-03T07:46:14;3.58;;;2.35;;
40204;SDS011;26963;42.666;23.366;2023-02-03T07:48:39;5.03;;;2.70;;
40204;SDS011;26963;42.666;23.366;2023-02-03T07:51:05;5.03;;;2.60;;
40204;SDS011;26963;42.666;23.366;2023-02-03T07:53:31;5.43;;;2.30;;
40204;SDS011;26963;42.666;23.366;2023-02-03T07:56:00;4.82;;;2.40;;
40204;SDS011;26963;42.666;23.366;2023-02-03T07:58:26;3.05;;;2.33;;
40204;SDS011;26963;42.666;23.366;2023-02-03T08:00:53;4.78;;;3.25;;
40204;SDS011;26963;42.666;23.366;2023-02-03T08:03:18;7.25;;;2.72;;
40204;SDS011;26963;42.666;23.366;2023-02-03T08:05:44;4.50;;;2.15;;
40204;SDS011;26963;42.666;23.366;2023-02-03T08:08:09;4.00;;;2.25;;
40204;SDS011;26963;42.666;23.366;2023-02-03T08:10:35;3.70;;;2.00;;
40204;SDS011;26963;42.666;23.366;2023-02-03T08:13:00;6.63;;;2.50;;
40204;SDS011;26963;42.666;23.366;2023-02-03T08:15:26;4.40;;;2.45;;
40204;SDS011;26963;42.666;23.366;2023-02-03T08:17:52;5.93;;;3.00;;
40204;SDS011;26963;42.666;23.366;2023-02-03T08:20:20;6.95;;;2.03;;
40204;SDS011;26963;42.666;23.366;2023-02-03T08:22:46;2.70;;;1.80;;
40204;SDS011;26963;42.666;23.366;2023-02-03T08:25:11;2.92;;;2.03;;
40204;SDS011;26963;42.666;23.366;2023-02-03T08:27:37;4.80;;;2.50;;
40204;SDS011;26963;42.666;23.366;2023-02-03T08:30:03;3.78;;;2.22;;
40204;SDS011;26963;42.666;23.366;2023-02-03T08:32:29;5.05;;;2.70;;
40204;SDS011;26963;42.666;23.366;2023-02-03T08:34:56;5.55;;;2.30;;
40204;SDS011;26963;42.666;23.366;2023-02-03T08:37:25;6.40;;;2.65;;
40204;SDS011;26963;42.666;23.366;2023-02-03T08:39:51;4.97;;;1.98;;
40204;SDS011;26963;42.666;23.366;2023-02-03T08:42:18;4.90;;;2.38;;
40204;SDS011;26963;42.666;23.366;2023-02-03T08:44:44;4.55;;;2.45;;
40204;SDS011;26963;42.666;23.366;2023-02-03T08:47:10;4.70;;;2.40;;
40204;SDS011;26963;42.666;23.366;2023-02-03T08:49:39;4.82;;;2.45;;
40204;SDS011;26963;42.666;23.366;2023-02-03T08:52:09;3.72;;;1.90;;
40204;SDS011;26963;42.666;23.366;2023-02-03T08:54:36;4.25;;;2.33;;
40204;SDS011;26963;42.666;23.366;2023-02-03T08:57:01;4.57;;;2.60;;
40204;SDS011;26963;42.666;23.366;2023-02-03T08:59:27;5.50;;;3.50;;
40204;SDS011;26963;42.666;23.366;2023-02-03T09:01:54;4.95;;;2.60;;
40204;SDS011;26963;42.666;23.366;2023-02-03T09:04:20;5.88;;;2.95;;
40204;SDS011;26963;42.666;23.366;2023-02-03T09:06:49;6.30;;;2.78;;
40204;SDS011;26963;42.666;23.366;2023-02-03T09:09:15;3.83;;;2.15;;
40204;SDS011;26963;42.666;23.366;2023-02-03T09:11:41;6.72;;;2.85;;
40204;SDS011;26963;42.666;23.366;2023-02-03T09:14:08;4.65;;;2.78;;
40204;SDS011;26963;42.666;23.366;2023-02-03T09:16:34;4.20;;;2.22;;
40204;SDS011;26963;42.666;23.366;2023-02-03T09:18:59;3.47;;;2.13;;
40204;SDS011;26963;42.666;23.366;2023-02-03T09:21:25;3.95;;;2.00;;
40204;SDS011;26963;42.666;23.366;2023-02-03T09:23:51;5.32;;;2.10;;
40204;SDS011;26963;42.666;23.366;2023-02-03T09:26:16;3.80;;;2.22;;
40204;SDS011;26963;42.666;23.366;2023-02-03T09:28:42;3.72;;;2.35;;
40204;SDS011;26963;42.666;23.366;2023-02-03T09:31:09;6.90;;;4.00;;
40204;SDS011;26963;42.666;23.366;2023-02-03T09:33:37;5.70;;;3.30;;
40204;SDS011;26963;42.666;23.366;2023-02-03T09:36:03;3.67;;;2.00;;
40204;SDS011;26963;42.666;23.366;2023-02-03T09:38:31;4.82;;;1.95;;
40204;SDS011;26963;42.666;23.366;2023-02-03T09:40:58;3.22;;;2.00;;
40204;SDS011;26963;42.666;23.366;2023-02-03T09:46:21;3.95;;;2.08;;
40204;SDS011;26963;42.666;23.366;2023-02-03T09:48:54;2.90;;;1.50;;
40204;SDS011;26963;42.666;23.366;2023-02-03T09:54:40;4.20;;;1.50;;
40204;SDS011;26963;42.666;23.366;2023-02-03T09:57:13;3.00;;;1.85;;
40204;SDS011;26963;42.666;23.366;2023-02-03T09:59:44;3.70;;;2.33;;
40204;SDS011;26963;42.666;23.366;2023-02-03T10:18:44;6.18;;;2.50;;
40204;SDS011;26963;42.666;23.366;2023-02-03T10:24:03;3.80;;;1.70;;
40204;SDS011;26963;42.666;23.366;2023-02-03T10:26:35;5.13;;;1.95;;
40204;SDS011;26963;42.666;23.366;2023-02-03T10:29:16;3.85;;;2.35;;
40204;SDS011;26963;42.666;23.366;2023-02-03T10:31:45;4.35;;;2.17;;
40204;SDS011;26963;42.666;23.366;2023-02-03T10:34:12;4.25;;;1.90;;
40204;SDS011;26963;42.666;23.366;2023-02-03T10:36:53;3.28;;;2.08;;
40204;SDS011;26963;42.666;23.366;2023-02-03T10:42:02;6.13;;;2.80;;
40204;SDS011;26963;42.666;23.366;2023-02-03T10:44:35;4.05;;;1.88;;
40204;SDS011;26963;42.666;23.366;2023-02-03T10:49:42;5.78;;;2.10;;
40204;SDS011;26963;42.666;23.366;2023-02-03T10:52:09;6.10;;;1.80;;
40204;SDS011;26963;42.666;23.366;2023-02-03T10:54:53;5.10;;;2.20;;
40204;SDS011;26963;42.666;23.366;2023-02-03T10:57:20;6.45;;;2.42;;
40204;SDS011;26963;42.666;23.366;2023-02-03T10:59:46;5.35;;;2.22;;
40204;SDS011;26963;42.666;23.366;2023-02-03T11:02:28;4.15;;;2.47;;
40204;SDS011;26963;42.666;23.366;2023-02-03T11:07:49;4.60;;;2.15;;
40204;SDS011;26963;42.666;23.366;2023-02-03T11:13:25;4.65;;;2.10;;
40204;SDS011;26963;42.666;23.366;2023-02-03T11:18:38;2.45;;;1.90;;
40204;SDS011;26963;42.666;23.366;2023-02-03T11:21:07;3.25;;;2.10;;
40204;SDS011;26963;42.666;23.366;2023-02-03T11:23:43;3.83;;;2.05;;
40204;SDS011;26963;42.666;23.366;2023-02-03T11:26:13;6.47;;;2.70;;
40204;SDS011;26963;42.666;23.366;2023-02-03T11:28:45;3.30;;;1.70;;
40204;SDS011;26963;42.666;23.366;2023-02-03T11:31:21;6.55;;;1.80;;
40204;SDS011;26963;42.666;23.366;2023-02-03T11:33:50;5.05;;;1.70;;
40204;SDS011;26963;42.666;23.366;2023-02-03T11:36:20;3.15;;;1.63;;
40204;SDS011;26963;42.666;23.366;2023-02-03T11:38:46;3.30;;;1.95;;
40204;SDS011;26963;42.666;23.366;2023-02-03T11:41:15;3.00;;;1.60;;
40204;SDS011;26963;42.666;23.366;2023-02-03T11:43:42;3.75;;;1.90;;
40204;SDS011;26963;42.666;23.366;2023-02-03T11:46:10;5.47;;;1.70;;
40204;SDS011;26963;42.666;23.366;2023-02-03T11:48:45;2.90;;;1.90;;
40204;SDS011;26963;42.666;23.366;2023-02-03T11:51:35;4.57;;;2.13;;
40204;SDS011;26963;42.666;23.366;2023-02-03T11:57:14;5.00;;;1.95;;
40204;SDS011;26963;42.666;23.366;2023-02-03T12:00:20;2.78;;;1.67;;
40204;SDS011;26963;42.666;23.366;2023-02-03T12:03:14;4.53;;;1.70;;
40204;SDS011;26963;42.666;23.366;2023-02-03T12:09:03;2.60;;;1.52;;
40204;SDS011;26963;42.666;23.366;2023-02-03T12:11:44;2.78;;;1.50;;
40204;SDS011;26963;42.666;23.366;2023-02-03T12:23:01;3.25;;;1.80;;
40204;SDS011;26963;42.666;23.366;2023-02-03T12:28:34;4.22;;;1.90;;
40204;SDS011;26963;42.666;23.366;2023-02-03T12:31:10;3.05;;;1.73;;
40204;SDS011;26963;42.666;23.366;2023-02-03T12:33:43;3.03;;;1.63;;
40204;SDS011;26963;42.666;23.366;2023-02-03T12:36:17;12.80;;;8.40;;
40204;SDS011;26963;42.666;23.366;2023-02-03T12:42:05;7.25;;;1.92;;
40204;SDS011;26963;42.666;23.366;2023-02-03T12:44:53;4.25;;;1.80;;
40204;SDS011;26963;42.666;23.366;2023-02-03T12:47:47;2.78;;;1.63;;
40204;SDS011;26963;42.666;23.366;2023-02-03T12:52:58;3.83;;;1.80;;
40204;SDS011;26963;42.666;23.366;2023-02-03T12:55:38;4.47;;;1.52;;
40204;SDS011;26963;42.666;23.366;2023-02-03T12:58:17;4.03;;;1.92;;
40204;SDS011;26963;42.666;23.366;2023-02-03T13:00:56;4.07;;;1.60;;
40204;SDS011;26963;42.666;23.366;2023-02-03T13:03:27;4.00;;;1.92;;
40204;SDS011;26963;42.666;23.366;2023-02-03T13:08:55;3.92;;;2.10;;
40204;SDS011;26963;42.666;23.366;2023-02-03T13:14:28;2.83;;;1.77;;
40204;SDS011;26963;42.666;23.366;2023-02-03T13:16:54;5.43;;;2.40;;
40204;SDS011;26963;42.666;23.366;2023-02-03T13:19:26;2.72;;;1.95;;
40204;SDS011;26963;42.666;23.366;2023-02-03T13:22:00;3.72;;;2.28;;
40204;SDS011;26963;42.666;23.366;2023-02-03T13:24:26;3.83;;;2.10;;
40204;SDS011;26963;42.666;23.366;2023-02-03T13:40:48;4.30;;;3.00;;
40204;SDS011;26963;42.666;23.366;2023-02-03T13:43:43;4.22;;;2.53;;
40204;SDS011;26963;42.666;23.366;2023-02-03T13:46:31;4.85;;;2.63;;
40204;SDS011;26963;42.666;23.366;2023-02-03T13:55:38;4.90;;;2.80;;
40204;SDS011;26963;42.666;23.366;2023-02-03T13:58:17;6.55;;;3.20;;
40204;SDS011;26963;42.666;23.366;2023-02-03T14:05:51;3.67;;;2.40;;
40204;SDS011;26963;42.666;23.366;2023-02-03T14:21:58;8.68;;;4.90;;
40204;SDS011;26963;42.666;23.366;2023-02-03T14:24:30;5.82;;;3.50;;
40204;SDS011;26963;42.666;23.366;2023-02-03T14:26:58;5.10;;;3.15;;
40204;SDS011;26963;42.666;23.366;2023-02-03T14:29:28;7.85;;;3.65;;
40204;SDS011;26963;42.666;23.366;2023-02-03T14:34:38;5.43;;;3.10;;
40204;SDS011;26963;42.666;23.366;2023-02-03T14:37:20;7.35;;;3.10;;
40204;SDS011;26963;42.666;23.366;2023-02-03T14:43:11;8.07;;;3.08;;
40204;SDS011;26963;42.666;23.366;2023-02-03T14:54:37;6.03;;;3.55;;
40204;SDS011;26963;42.666;23.366;2023-02-03T15:02:25;4.53;;;2.65;;
40204;SDS011;26963;42.666;23.366;2023-02-03T15:07:39;4.43;;;2.60;;
40204;SDS011;26963;42.666;23.366;2023-02-03T15:12:45;5.32;;;2.97;;
40204;SDS011;26963;42.666;23.366;2023-02-03T15:15:29;5.20;;;3.20;;
40204;SDS011;26963;42.666;23.366;2023-02-03T15:17:58;8.18;;;3.33;;
40204;SDS011;26963;42.666;23.366;2023-02-03T15:20:44;17.15;;;8.75;;
40204;SDS011;26963;42.666;23.366;2023-02-03T15:23:26;8.30;;;3.45;;
40204;SDS011;26963;42.666;23.366;2023-02-03T15:26:01;6.05;;;2.72;;
40204;SDS011;26963;42.666;23.366;2023-02-03T15:28:28;4.63;;;2.95;;
40204;SDS011;26963;42.666;23.366;2023-02-03T15:30:59;4.88;;;2.83;;
40204;SDS011;26963;42.666;23.366;2023-02-03T15:33:31;5.28;;;3.20;;
40204;SDS011;26963;42.666;23.366;2023-02-03T15:36:04;5.15;;;3.10;;
40204;SDS011;26963;42.666;23.366;2023-02-03T15:38:37;4.38;;;2.92;;
40204;SDS011;26963;42.666;23.366;2023-02-03T15:41:06;4.63;;;2.63;;
40204;SDS011;26963;42.666;23.366;2023-02-03T15:43:41;7.20;;;2.97;;
40204;SDS011;26963;42.666;23.366;2023-02-03T15:51:30;6.72;;;3.15;;
40204;SDS011;26963;42.666;23.366;2023-02-03T15:59:38;4.85;;;2.85;;
40204;SDS011;26963;42.666;23.366;2023-02-03T16:02:15;6.10;;;3.13;;
40204;SDS011;26963;42.666;23.366;2023-02-03T16:04:43;7.32;;;3.65;;
40204;SDS011;26963;42.666;23.366;2023-02-03T16:07:17;4.35;;;2.55;;
40204;SDS011;26963;42.666;23.366;2023-02-03T16:09:45;5.47;;;2.90;;
40204;SDS011;26963;42.666;23.366;2023-02-03T16:14:48;7.20;;;4.25;;
40204;SDS011;26963;42.666;23.366;2023-02-03T16:19:50;6.95;;;4.03;;
40204;SDS011;26963;42.666;23.366;2023-02-03T16:22:29;7.72;;;3.33;;
40204;SDS011;26963;42.666;23.366;2023-02-03T16:25:13;7.20;;;3.78;;
40204;SDS011;26963;42.666;23.366;2023-02-03T16:27:54;7.45;;;3.75;;
40204;SDS011;26963;42.666;23.366;2023-02-03T16:30:50;6.10;;;3.30;;
40204;SDS011;26963;42.666;23.366;2023-02-03T16:33:46;6.32;;;3.05;;
40204;SDS011;26963;42.666;23.366;2023-02-03T16:36:31;6.65;;;3.28;;
40204;SDS011;26963;42.666;23.366;2023-02-03T16:39:15;5.50;;;3.35;;
40204;SDS011;26963;42.666;23.366;2023-02-03T16:42:01;6.35;;;3.40;;
40204;SDS011;26963;42.666;23.366;2023-02-03T16:44:56;6.95;;;3.50;;
40204;SDS011;26963;42.666;23.366;2023-02-03T16:47:40;7.88;;;3.35;;
40204;SDS011;26963;42.666;23.366;2023-02-03T16:50:27;7.53;;;4.40;;
40204;SDS011;26963;42.666;23.366;2023-02-03T16:53:13;7.13;;;4.65;;
40204;SDS011;26963;42.666;23.366;2023-02-03T16:55:41;9.73;;;5.13;;
40204;SDS011;26963;42.666;23.366;2023-02-03T16:58:08;8.50;;;3.70;;
40204;SDS011;26963;42.666;23.366;2023-02-03T17:00:36;6.60;;;4.00;;
40204;SDS011;26963;42.666;23.366;2023-02-03T17:03:05;8.45;;;5.38;;
40204;SDS011;26963;42.666;23.366;2023-02-03T17:05:35;11.73;;;5.50;;
40204;SDS011;26963;42.666;23.366;2023-02-03T17:08:04;8.00;;;5.55;;
40204;SDS011;26963;42.666;23.366;2023-02-03T17:10:34;7.13;;;5.05;;
40204;SDS011;26963;42.666;23.366;2023-02-03T17:13:00;8.77;;;4.88;;
40204;SDS011;26963;42.666;23.366;2023-02-03T17:15:26;8.77;;;5.50;;
40204;SDS011;26963;42.666;23.366;2023-02-03T17:17:51;9.20;;;5.60;;
40204;SDS011;26963;42.666;23.366;2023-02-03T17:20:20;11.18;;;5.68;;
40204;SDS011;26963;42.666;23.366;2023-02-03T17:22:46;9.40;;;6.15;;
40204;SDS011;26963;42.666;23.366;2023-02-03T17:25:11;10.85;;;5.53;;
40204;SDS011;26963;42.666;23.366;2023-02-03T17:27:37;8.85;;;5.57;;
40204;SDS011;26963;42.666;23.366;2023-02-03T17:30:03;8.68;;;4.72;;
40204;SDS011;26963;42.666;23.366;2023-02-03T17:32:29;8.20;;;4.68;;
40204;SDS011;26963;42.666;23.366;2023-02-03T17:34:54;8.02;;;5.03;;
40204;SDS011;26963;42.666;23.366;2023-02-03T17:37:20;7.70;;;4.18;;
40204;SDS011;26963;42.666;23.366;2023-02-03T17:39:45;6.28;;;3.97;;